Time;durP1;ratioP1;P1;durP2;ratioP2;P2;SDS_P1;SDS_P2;PMS_P1;PMS_P2;Temp;Humidity;BMP_temperature;BMP_pressure;BME280_temperature;BME280_humidity;BME280_pressure;Samples;Min_cycle;Max_cycle;Signal;HPM_P1;HPM_P2
2023/11/16 00:01:17;0.00;0.00;0.62;0.00;0.00;0.62;6.20;3.60;;;22.00;29.60;;;;;;2265817;61;20387;-59
2023/11/16 00:04:02;0.00;0.00;0.62;0.00;0.00;0.62;4.70;3.57;;;22.00;29.60;;;;;;2265879;61;20372;-58
2023/11/16 00:06:47;0.00;0.00;0.62;0.00;0.00;0.62;4.37;3.83;;;22.00;29.60;;;;;;2265989;61;20485;-58
2023/11/16 00:09:31;0.00;0.00;0.62;0.00;0.00;0.62;5.43;3.60;;;22.00;29.60;;;;;;2266334;61;20396;-60
2023/11/16 00:12:16;0.00;0.00;0.62;0.00;0.00;0.62;4.80;3.40;;;22.00;29.60;;;;;;2266066;61;20452;-59
2023/11/16 00:15:01;0.00;0.00;0.62;0.00;0.00;0.62;6.20;3.40;;;22.00;29.60;;;;;;2266441;61;20852;-57
2023/11/16 00:17:48;0.00;0.00;0.62;0.00;0.00;0.62;4.67;3.80;;;22.00;29.60;;;;;;2265778;61;20364;-57
2023/11/16 00:20:32;0.00;0.00;0.62;0.00;0.00;0.62;4.93;3.77;;;22.00;29.60;;;;;;2266394;61;20431;-58
2023/11/16 00:23:17;0.00;0.00;0.62;0.00;0.00;0.62;5.20;3.90;;;22.00;29.60;;;;;;2266251;61;20363;-57
2023/11/16 00:26:02;0.00;0.00;0.62;0.00;0.00;0.62;5.53;3.97;;;22.00;29.60;;;;;;2266446;61;20372;-58
2023/11/16 00:28:48;0.00;0.00;0.62;0.00;0.00;0.62;6.37;4.13;;;22.00;29.60;;;;;;2266711;61;20879;-60
2023/11/16 00:31:36;0.00;0.00;0.62;0.00;0.00;0.62;5.47;3.60;;;22.00;30.00;;;;;;2265865;61;20928;-56
2023/11/16 00:34:23;0.00;0.00;0.62;0.00;0.00;0.62;6.80;4.73;;;22.00;29.60;;;;;;2266748;61;20507;-57
2023/11/16 00:37:08;0.00;0.00;0.62;0.00;0.00;0.62;6.60;4.20;;;22.00;29.60;;;;;;2265929;61;20364;-59
2023/11/16 00:39:57;0.00;0.00;0.62;0.00;0.00;0.62;6.93;4.30;;;22.00;29.60;;;;;;2265659;61;20434;-58
2023/11/16 00:42:41;0.00;0.00;0.62;0.00;0.00;0.62;6.30;4.00;;;22.00;29.60;;;;;;2265623;61;20402;-59
2023/11/16 00:45:26;0.00;0.00;0.62;0.00;0.00;0.62;7.40;4.43;;;22.00;29.60;;;;;;2266693;61;20390;-58
2023/11/16 00:48:11;0.00;0.00;0.62;0.00;0.00;0.62;7.57;4.27;;;22.00;29.60;;;;;;2266092;61;20391;-60
2023/11/16 00:50:57;0.00;0.00;0.62;0.00;0.00;0.62;6.30;3.67;;;22.00;29.60;;;;;;2266328;61;20921;-57
2023/11/16 00:53:43;0.00;0.00;0.62;0.00;0.00;0.62;6.40;3.80;;;22.00;29.60;;;;;;2265899;61;20392;-60
2023/11/16 00:56:27;0.00;0.00;0.62;0.00;0.00;0.62;5.17;3.83;;;22.00;29.60;;;;;;2266140;61;20359;-59
2023/11/16 00:59:12;0.00;0.00;0.62;0.00;0.00;0.62;5.63;3.47;;;22.00;29.60;;;;;;2266349;61;20376;-59
2023/11/16 01:02:02;0.00;0.00;0.62;0.00;0.00;0.62;4.97;3.97;;;22.00;29.60;;;;;;2265755;61;20410;-59
2023/11/16 01:04:46;0.00;0.00;0.62;0.00;0.00;0.62;4.73;3.40;;;22.00;29.60;;;;;;2266329;61;20399;-59
2023/11/16 01:07:33;0.00;0.00;0.62;0.00;0.00;0.62;5.07;3.77;;;22.00;29.60;;;;;;2266493;61;20934;-56
2023/11/16 01:10:23;0.00;0.00;0.62;0.00;0.00;0.62;4.90;3.53;;;22.00;29.60;;;;;;2262719;61;20517;-59
2023/11/16 01:13:08;0.00;0.00;0.62;0.00;0.00;0.62;5.20;3.50;;;22.00;29.50;;;;;;2265716;61;20364;-58
2023/11/16 01:15:56;0.00;0.00;0.62;0.00;0.00;0.62;5.77;3.83;;;22.00;29.50;;;;;;2265712;61;20438;-62
2023/11/16 01:18:51;0.00;0.00;0.62;0.00;0.00;0.62;4.53;3.33;;;22.00;29.50;;;;;;2266039;61;20425;-60
2023/11/16 01:21:50;0.00;0.00;0.62;0.00;0.00;0.62;4.37;3.30;;;21.90;29.50;;;;;;2262789;61;20356;-59
2023/11/16 01:24:37;0.00;0.00;0.62;0.00;0.00;0.62;4.10;2.90;;;22.00;29.60;;;;;;2265544;61;20399;-59
2023/11/16 01:27:29;0.00;0.00;0.62;0.00;0.00;0.62;5.10;3.43;;;22.00;29.60;;;;;;2266264;61;20976;-60
2023/11/16 01:30:14;0.00;0.00;0.62;0.00;0.00;0.62;5.10;3.40;;;22.00;29.50;;;;;;2265831;61;20870;-57
2023/11/16 01:32:59;0.00;0.00;0.62;0.00;0.00;0.62;5.53;3.47;;;22.00;29.60;;;;;;2265218;61;20894;-58
2023/11/16 01:35:44;0.00;0.00;0.62;0.00;0.00;0.62;4.70;3.00;;;22.00;29.50;;;;;;2265787;61;20916;-60
2023/11/16 01:38:30;0.00;0.00;0.62;0.00;0.00;0.62;5.57;3.37;;;22.00;29.60;;;;;;2265500;61;20360;-56
2023/11/16 01:41:16;0.00;0.00;0.62;0.00;0.00;0.62;3.60;2.73;;;22.00;29.50;;;;;;2266343;61;20425;-60
2023/11/16 01:44:01;0.00;0.00;0.62;0.00;0.00;0.62;4.50;3.10;;;22.00;29.50;;;;;;2265598;61;20372;-58
2023/11/16 01:46:46;0.00;0.00;0.62;0.00;0.00;0.62;4.87;3.80;;;21.90;29.50;;;;;;2265342;61;20913;-59
2023/11/16 01:49:30;0.00;0.00;0.62;0.00;0.00;0.62;4.80;2.90;;;21.90;29.50;;;;;;2265964;61;20483;-56
2023/11/16 01:52:15;0.00;0.00;0.62;0.00;0.00;0.62;4.30;3.20;;;22.00;29.50;;;;;;2265318;61;20396;-56
2023/11/16 01:55:00;0.00;0.00;0.62;0.00;0.00;0.62;4.87;2.67;;;22.00;29.50;;;;;;2266276;61;20406;-56
2023/11/16 01:57:46;0.00;0.00;0.62;0.00;0.00;0.62;4.00;3.23;;;22.00;29.50;;;;;;2266129;61;20360;-59
2023/11/16 02:00:35;0.00;0.00;0.62;0.00;0.00;0.62;3.70;2.70;;;22.00;29.50;;;;;;2265605;61;20434;-56
2023/11/16 02:03:20;0.00;0.00;0.62;0.00;0.00;0.62;3.63;2.40;;;22.00;29.50;;;;;;2265480;61;20380;-59
2023/11/16 02:06:07;0.00;0.00;0.62;0.00;0.00;0.62;4.77;3.10;;;22.00;29.50;;;;;;2266084;61;20356;-60
2023/11/16 02:08:52;0.00;0.00;0.62;0.00;0.00;0.62;3.90;2.60;;;21.90;29.50;;;;;;2265609;61;20624;-60
2023/11/16 02:11:37;0.00;0.00;0.62;0.00;0.00;0.62;4.60;3.00;;;21.90;29.50;;;;;;2265856;61;20403;-60
2023/11/16 02:14:23;0.00;0.00;0.62;0.00;0.00;0.62;3.90;2.67;;;21.90;30.00;;;;;;2265899;61;20893;-57
2023/11/16 02:17:09;0.00;0.00;0.62;0.00;0.00;0.62;3.70;2.77;;;21.90;29.50;;;;;;2265848;61;20916;-59
2023/11/16 02:19:54;0.00;0.00;0.62;0.00;0.00;0.62;3.47;2.53;;;21.90;29.50;;;;;;2261571;61;20539;-60
2023/11/16 02:22:40;0.00;0.00;0.62;0.00;0.00;0.62;4.77;3.30;;;21.90;29.50;;;;;;2260634;61;20973;-60
2023/11/16 02:25:26;0.00;0.00;0.62;0.00;0.00;0.62;4.43;2.60;;;21.90;29.50;;;;;;2259882;61;20464;-63
2023/11/16 02:28:11;0.00;0.00;0.62;0.00;0.00;0.62;5.47;2.50;;;21.90;29.50;;;;;;2266103;61;20368;-60
2023/11/16 02:31:00;0.00;0.00;0.62;0.00;0.00;0.62;3.23;2.10;;;21.90;29.50;;;;;;2265504;61;20439;-58
2023/11/16 02:33:45;0.00;0.00;0.62;0.00;0.00;0.62;3.57;2.53;;;21.90;29.40;;;;;;2265819;61;20462;-58
2023/11/16 02:36:31;0.00;0.00;0.62;0.00;0.00;0.62;7.63;2.73;;;21.90;29.40;;;;;;2265656;61;20364;-58
2023/11/16 02:39:16;0.00;0.00;0.62;0.00;0.00;0.62;3.20;1.90;;;21.90;29.40;;;;;;2265911;61;20360;-56
2023/11/16 02:42:02;0.00;0.00;0.62;0.00;0.00;0.62;5.00;3.03;;;21.90;29.40;;;;;;2265705;61;20487;-60
2023/11/16 02:44:48;0.00;0.00;0.62;0.00;0.00;0.62;3.93;2.40;;;21.90;29.40;;;;;;2265272;61;20372;-58
2023/11/16 02:47:32;0.00;0.00;0.62;0.00;0.00;0.62;5.03;2.47;;;21.90;29.40;;;;;;2265720;61;20463;-58
2023/11/16 02:50:18;0.00;0.00;0.62;0.00;0.00;0.62;3.90;2.23;;;21.90;29.40;;;;;;2266087;61;20391;-58
2023/11/16 02:53:03;0.00;0.00;0.62;0.00;0.00;0.62;3.93;2.53;;;21.90;29.50;;;;;;2265533;61;20542;-56
2023/11/16 02:55:47;0.00;0.00;0.62;0.00;0.00;0.62;3.07;2.30;;;21.90;29.40;;;;;;2265818;61;20441;-58
2023/11/16 02:58:33;0.00;0.00;0.62;0.00;0.00;0.62;3.33;2.27;;;21.90;29.40;;;;;;2266371;61;20375;-55
2023/11/16 03:01:18;0.00;0.00;0.62;0.00;0.00;0.62;4.10;2.50;;;21.90;29.50;;;;;;2265824;61;20929;-58
2023/11/16 03:04:04;0.00;0.00;0.62;0.00;0.00;0.62;3.03;2.27;;;21.90;29.50;;;;;;2265486;61;20407;-56
2023/11/16 03:06:49;0.00;0.00;0.62;0.00;0.00;0.62;3.10;2.10;;;21.90;29.50;;;;;;2265261;61;20398;-59
2023/11/16 03:09:34;0.00;0.00;0.62;0.00;0.00;0.62;4.03;2.30;;;21.90;29.40;;;;;;2265840;61;20416;-60
2023/11/16 03:12:21;0.00;0.00;0.62;0.00;0.00;0.62;3.57;2.30;;;21.90;29.40;;;;;;2265087;61;20359;-59
2023/11/16 03:15:09;0.00;0.00;0.62;0.00;0.00;0.62;4.23;2.53;;;21.90;29.40;;;;;;2265108;61;20399;-58
2023/11/16 03:17:56;0.00;0.00;0.62;0.00;0.00;0.62;3.50;2.17;;;21.90;29.40;;;;;;2265664;61;20963;-60
2023/11/16 03:20:43;0.00;0.00;0.62;0.00;0.00;0.62;3.03;1.97;;;21.90;29.40;;;;;;2265595;61;20946;-60
2023/11/16 03:23:28;0.00;0.00;0.62;0.00;0.00;0.62;3.77;2.30;;;21.90;29.40;;;;;;2265398;61;20503;-61
2023/11/16 03:26:12;0.00;0.00;0.62;0.00;0.00;0.62;5.17;2.20;;;21.90;29.40;;;;;;2265571;61;20395;-59
2023/11/16 03:28:58;0.00;0.00;0.62;0.00;0.00;0.62;2.60;1.93;;;21.80;29.40;;;;;;2265206;61;21011;-56
2023/11/16 03:31:44;0.00;0.00;0.62;0.00;0.00;0.62;3.33;2.20;;;21.80;29.30;;;;;;2265325;61;20391;-55
2023/11/16 03:34:29;0.00;0.00;0.62;0.00;0.00;0.62;3.50;1.87;;;21.90;29.40;;;;;;2265387;61;20367;-60
2023/11/16 03:37:14;0.00;0.00;0.62;0.00;0.00;0.62;2.70;1.77;;;21.90;29.40;;;;;;2265459;61;20406;-59
2023/11/16 03:39:58;0.00;0.00;0.62;0.00;0.00;0.62;3.30;2.03;;;21.90;29.40;;;;;;2265855;61;20391;-58
2023/11/16 03:42:43;0.00;0.00;0.62;0.00;0.00;0.62;3.43;1.90;;;21.90;29.40;;;;;;2266291;61;20367;-59
2023/11/16 03:45:28;0.00;0.00;0.62;0.00;0.00;0.62;3.10;1.97;;;21.90;29.40;;;;;;2266012;61;20383;-60
2023/11/16 03:48:14;0.00;0.00;0.62;0.00;0.00;0.62;3.23;2.20;;;21.90;29.40;;;;;;2266587;61;20400;-64
2023/11/16 03:50:59;0.00;0.00;0.62;0.00;0.00;0.62;3.50;2.07;;;21.90;29.50;;;;;;2266197;61;20423;-60
2023/11/16 03:53:43;0.00;0.00;0.62;0.00;0.00;0.62;3.33;1.73;;;21.90;29.40;;;;;;2266323;61;20375;-59
2023/11/16 03:56:28;0.00;0.00;0.62;0.00;0.00;0.62;2.97;2.13;;;21.80;29.40;;;;;;2266562;61;20356;-60
2023/11/16 03:59:12;0.00;0.00;0.62;0.00;0.00;0.62;2.43;2.00;;;21.80;29.40;;;;;;2265780;61;20966;-59
2023/11/16 04:01:57;0.00;0.00;0.62;0.00;0.00;0.62;3.70;1.80;;;21.90;29.40;;;;;;2266331;61;20367;-61
2023/11/16 04:04:43;0.00;0.00;0.62;0.00;0.00;0.62;2.63;1.50;;;21.80;29.40;;;;;;2266672;61;21102;-61
2023/11/16 04:07:28;0.00;0.00;0.62;0.00;0.00;0.62;2.67;1.77;;;21.80;29.40;;;;;;2266218;61;20426;-58
2023/11/16 04:10:13;0.00;0.00;0.62;0.00;0.00;0.62;2.90;1.87;;;21.90;29.40;;;;;;2266763;61;20375;-60
2023/11/16 04:12:59;0.00;0.00;0.62;0.00;0.00;0.62;3.50;2.03;;;21.80;29.30;;;;;;2266088;61;20383;-57
2023/11/16 04:15:45;0.00;0.00;0.62;0.00;0.00;0.62;3.37;1.60;;;21.80;29.30;;;;;;2266550;61;20368;-54
2023/11/16 04:18:30;0.00;0.00;0.62;0.00;0.00;0.62;3.07;1.50;;;21.80;29.30;;;;;;2266655;61;20869;-56
2023/11/16 04:21:20;0.00;0.00;0.62;0.00;0.00;0.62;2.43;1.73;;;21.80;29.30;;;;;;2265807;61;20809;-60
2023/11/16 04:24:11;0.00;0.00;0.62;0.00;0.00;0.62;4.03;1.80;;;21.80;29.30;;;;;;2265559;61;20380;-56
2023/11/16 04:26:56;0.00;0.00;0.62;0.00;0.00;0.62;2.43;1.60;;;21.80;29.30;;;;;;2266467;61;20375;-58
2023/11/16 04:29:42;0.00;0.00;0.62;0.00;0.00;0.62;2.70;1.90;;;21.80;29.30;;;;;;2265781;61;20477;-60
2023/11/16 04:32:27;0.00;0.00;0.62;0.00;0.00;0.62;3.97;2.57;;;21.80;29.30;;;;;;2265782;61;20364;-59
2023/11/16 04:35:15;0.00;0.00;0.62;0.00;0.00;0.62;2.10;1.30;;;21.80;29.30;;;;;;2266412;61;20410;-56
2023/11/16 04:38:03;0.00;0.00;0.62;0.00;0.00;0.62;2.90;1.70;;;21.80;29.30;;;;;;2266252;61;20353;-60
2023/11/16 04:40:48;0.00;0.00;0.62;0.00;0.00;0.62;1.77;1.20;;;21.80;29.30;;;;;;2266449;61;20429;-57
2023/11/16 04:43:33;0.00;0.00;0.62;0.00;0.00;0.62;2.80;1.67;;;21.80;29.30;;;;;;2265508;61;20376;-58
2023/11/16 04:46:18;0.00;0.00;0.62;0.00;0.00;0.62;2.30;1.60;;;21.80;29.30;;;;;;2266385;61;20364;-60
2023/11/16 04:49:04;0.00;0.00;0.62;0.00;0.00;0.62;2.47;1.43;;;21.80;29.30;;;;;;2266265;61;20780;-58
2023/11/16 04:51:49;0.00;0.00;0.62;0.00;0.00;0.62;3.63;1.90;;;21.80;29.30;;;;;;2265221;61;20975;-58
2023/11/16 04:54:36;0.00;0.00;0.62;0.00;0.00;0.62;2.70;1.53;;;21.80;29.30;;;;;;2266056;61;20368;-60
2023/11/16 04:57:20;0.00;0.00;0.62;0.00;0.00;0.62;2.60;1.47;;;21.80;29.30;;;;;;2266320;61;20364;-57
2023/11/16 05:00:10;0.00;0.00;0.62;0.00;0.00;0.62;3.23;1.77;;;21.80;29.30;;;;;;2266232;61;20396;-56
2023/11/16 05:02:55;0.00;0.00;0.62;0.00;0.00;0.62;2.90;2.13;;;21.80;29.30;;;;;;2265905;61;20375;-60
2023/11/16 05:05:39;0.00;0.00;0.62;0.00;0.00;0.62;3.33;2.00;;;21.80;29.80;;;;;;2266289;61;20430;-60
2023/11/16 05:08:25;0.00;0.00;0.62;0.00;0.00;0.62;5.13;2.00;;;21.80;29.30;;;;;;2266386;61;20874;-59
2023/11/16 05:11:21;0.00;0.00;0.62;0.00;0.00;0.62;3.30;1.50;;;21.80;29.30;;;;;;2266492;61;20384;-58
2023/11/16 05:14:05;0.00;0.00;0.62;0.00;0.00;0.62;2.40;1.47;;;21.80;29.30;;;;;;2266201;61;20404;-58
2023/11/16 05:16:50;0.00;0.00;0.62;0.00;0.00;0.62;3.60;1.73;;;21.80;29.30;;;;;;2266341;61;20917;-57
2023/11/16 05:19:34;0.00;0.00;0.62;0.00;0.00;0.62;3.43;1.57;;;21.80;29.30;;;;;;2266675;61;20981;-60
2023/11/16 05:22:20;0.00;0.00;0.62;0.00;0.00;0.62;3.90;2.13;;;21.80;29.30;;;;;;2266275;61;20363;-58
2023/11/16 05:25:06;0.00;0.00;0.62;0.00;0.00;0.62;2.47;1.73;;;21.80;29.40;;;;;;2266335;61;20414;-66
2023/11/16 05:27:52;0.00;0.00;0.62;0.00;0.00;0.62;2.40;1.70;;;21.80;29.30;;;;;;2266165;61;20500;-59
2023/11/16 05:30:37;0.00;0.00;0.62;0.00;0.00;0.62;4.00;1.63;;;21.80;29.40;;;;;;2266622;61;20519;-59
2023/11/16 05:33:24;0.00;0.00;0.62;0.00;0.00;0.62;2.87;1.73;;;21.80;29.30;;;;;;2266196;61;20894;-58
2023/11/16 05:36:11;0.00;0.00;0.62;0.00;0.00;0.62;2.87;1.90;;;21.80;29.40;;;;;;2266248;61;20901;-62
2023/11/16 05:38:56;0.00;0.00;0.62;0.00;0.00;0.62;3.50;2.20;;;21.70;29.30;;;;;;2263178;61;20425;-57
2023/11/16 05:41:41;0.00;0.00;0.62;0.00;0.00;0.62;3.47;1.87;;;21.70;29.30;;;;;;2265955;61;20398;-57
2023/11/16 05:44:27;0.00;0.00;0.62;0.00;0.00;0.62;2.00;1.10;;;21.70;29.30;;;;;;2266854;61;20438;-59
2023/11/16 05:47:12;0.00;0.00;0.62;0.00;0.00;0.62;2.60;1.53;;;21.70;29.30;;;;;;2266619;61;20387;-59
2023/11/16 05:49:56;0.00;0.00;0.62;0.00;0.00;0.62;3.27;1.70;;;21.70;29.30;;;;;;2266024;61;20411;-60
2023/11/16 05:52:41;0.00;0.00;0.62;0.00;0.00;0.62;2.43;1.57;;;21.70;29.30;;;;;;2266160;61;20391;-60
2023/11/16 05:55:26;0.00;0.00;0.62;0.00;0.00;0.62;2.73;1.87;;;21.70;29.30;;;;;;2266943;61;20364;-57
2023/11/16 05:58:11;0.00;0.00;0.62;0.00;0.00;0.62;2.37;1.50;;;21.70;29.30;;;;;;2265997;61;20363;-59
2023/11/16 06:00:57;0.00;0.00;0.62;0.00;0.00;0.62;2.73;1.53;;;21.70;29.30;;;;;;2266441;61;20400;-58
2023/11/16 06:03:41;0.00;0.00;0.62;0.00;0.00;0.62;2.73;1.60;;;21.70;29.30;;;;;;2265880;61;20799;-59
2023/11/16 06:06:26;0.00;0.00;0.62;0.00;0.00;0.62;2.23;1.50;;;21.70;29.40;;;;;;2266055;61;20825;-58
2023/11/16 06:09:10;0.00;0.00;0.62;0.00;0.00;0.62;3.60;1.60;;;21.70;29.40;;;;;;2266699;61;20441;-58
2023/11/16 06:11:59;0.00;0.00;0.62;0.00;0.00;0.62;2.70;1.90;;;21.70;29.40;;;;;;2265649;61;20363;-58
2023/11/16 06:14:54;0.00;0.00;0.62;0.00;0.00;0.62;2.87;1.47;;;21.70;29.40;;;;;;2265976;61;20392;-59
2023/11/16 06:17:41;0.00;0.00;0.62;0.00;0.00;0.62;2.97;1.63;;;21.70;29.40;;;;;;2266525;61;20397;-58
2023/11/16 06:20:28;0.00;0.00;0.62;0.00;0.00;0.62;2.30;1.40;;;21.70;29.40;;;;;;2266253;61;20380;-59
2023/11/16 06:23:12;0.00;0.00;0.62;0.00;0.00;0.62;3.23;1.90;;;21.70;29.40;;;;;;2265923;61;20885;-60
2023/11/16 06:25:57;0.00;0.00;0.62;0.00;0.00;0.62;1.80;1.20;;;21.70;29.40;;;;;;2266471;61;20611;-60
2023/11/16 06:28:42;0.00;0.00;0.62;0.00;0.00;0.62;2.67;1.80;;;21.70;29.40;;;;;;2266058;61;20982;-60
2023/11/16 06:31:27;0.00;0.00;0.62;0.00;0.00;0.62;2.60;1.40;;;21.70;29.40;;;;;;2266383;61;20403;-59
2023/11/16 06:34:13;0.00;0.00;0.62;0.00;0.00;0.62;2.80;1.40;;;21.70;29.40;;;;;;2266003;61;20364;-59
2023/11/16 06:36:58;0.00;0.00;0.62;0.00;0.00;0.62;2.43;1.50;;;21.70;29.40;;;;;;2266350;61;20763;-60
2023/11/16 06:39:42;0.00;0.00;0.62;0.00;0.00;0.62;2.80;1.87;;;21.70;29.40;;;;;;2266299;61;20395;-59
2023/11/16 06:42:27;0.00;0.00;0.62;0.00;0.00;0.62;2.47;1.70;;;21.70;29.40;;;;;;2265468;61;20356;-58
2023/11/16 06:45:12;0.00;0.00;0.62;0.00;0.00;0.62;2.53;1.57;;;21.70;29.40;;;;;;2265977;61;20360;-58
2023/11/16 06:48:00;0.00;0.00;0.62;0.00;0.00;0.62;3.00;1.83;;;21.70;29.40;;;;;;2266016;61;20431;-57
2023/11/16 06:50:49;0.00;0.00;0.62;0.00;0.00;0.62;2.50;2.00;;;21.70;29.40;;;;;;2266039;61;20431;-58
2023/11/16 06:53:34;0.00;0.00;0.62;0.00;0.00;0.62;2.90;1.57;;;21.70;29.40;;;;;;2266043;61;20392;-58
2023/11/16 06:56:19;0.00;0.00;0.62;0.00;0.00;0.62;3.13;1.80;;;21.70;29.40;;;;;;2265386;61;20367;-58
2023/11/16 06:59:04;0.00;0.00;0.62;0.00;0.00;0.62;2.00;1.10;;;21.70;29.40;;;;;;2266091;61;20347;-63
2023/11/16 07:01:49;0.00;0.00;0.62;0.00;0.00;0.62;1.90;1.27;;;21.70;29.40;;;;;;2266139;61;20363;-60
2023/11/16 07:04:36;0.00;0.00;0.62;0.00;0.00;0.62;3.13;1.97;;;21.70;29.40;;;;;;2265799;61;20933;-59
2023/11/16 07:07:22;0.00;0.00;0.62;0.00;0.00;0.62;2.53;1.53;;;21.70;29.40;;;;;;2265874;61;21015;-59
2023/11/16 07:10:08;0.00;0.00;0.62;0.00;0.00;0.62;3.40;1.57;;;21.70;29.40;;;;;;2266141;61;20427;-58
2023/11/16 07:12:53;0.00;0.00;0.62;0.00;0.00;0.62;2.40;1.60;;;21.70;29.40;;;;;;2265753;61;20372;-59
2023/11/16 07:15:37;0.00;0.00;0.62;0.00;0.00;0.62;2.97;1.80;;;21.70;29.40;;;;;;2265840;61;20372;-59
2023/11/16 07:18:22;0.00;0.00;0.62;0.00;0.00;0.62;2.93;1.90;;;21.70;29.40;;;;;;2265605;61;20395;-60
2023/11/16 07:21:07;0.00;0.00;0.62;0.00;0.00;0.62;3.13;1.80;;;21.70;29.40;;;;;;2266119;61;20375;-63
2023/11/16 07:23:53;0.00;0.00;0.62;0.00;0.00;0.62;2.63;1.83;;;21.70;29.40;;;;;;2265997;61;20422;-61
2023/11/16 07:26:39;0.00;0.00;0.62;0.00;0.00;0.62;3.60;2.47;;;21.70;29.40;;;;;;2265738;61;20368;-63
2023/11/16 07:29:24;0.00;0.00;0.62;0.00;0.00;0.62;4.17;2.53;;;21.70;29.40;;;;;;2266024;61;20391;-60
2023/11/16 07:32:09;0.00;0.00;0.62;0.00;0.00;0.62;3.40;2.20;;;21.70;29.50;;;;;;2266060;61;20437;-60
2023/11/16 07:34:53;0.00;0.00;0.62;0.00;0.00;0.62;3.00;2.13;;;21.70;29.40;;;;;;2265989;61;20426;-57
2023/11/16 07:37:38;0.00;0.00;0.62;0.00;0.00;0.62;3.23;2.27;;;21.70;29.40;;;;;;2266162;61;20437;-60
2023/11/16 07:40:25;0.00;0.00;0.62;0.00;0.00;0.62;3.93;2.70;;;21.70;29.40;;;;;;2265724;61;20472;-59
2023/11/16 07:43:09;0.00;0.00;0.62;0.00;0.00;0.62;2.67;2.17;;;21.70;29.40;;;;;;2265112;61;20414;-60
2023/11/16 07:45:54;0.00;0.00;0.62;0.00;0.00;0.62;4.20;2.80;;;21.70;29.40;;;;;;2266099;61;20384;-56
2023/11/16 07:48:39;0.00;0.00;0.62;0.00;0.00;0.62;3.17;2.03;;;21.70;29.50;;;;;;2265120;61;20442;-60
2023/11/16 07:51:24;0.00;0.00;0.62;0.00;0.00;0.62;3.70;2.63;;;21.70;29.40;;;;;;2265839;61;20392;-60
2023/11/16 07:54:11;0.00;0.00;0.62;0.00;0.00;0.62;4.10;2.90;;;21.70;29.50;;;;;;2265924;61;20415;-58
2023/11/16 07:57:02;0.00;0.00;0.62;0.00;0.00;0.62;3.47;2.60;;;21.70;29.40;;;;;;2265808;61;20360;-60
2023/11/16 07:59:47;0.00;0.00;0.62;0.00;0.00;0.62;4.43;2.70;;;21.70;29.50;;;;;;2266044;61;21032;-56
2023/11/16 08:03:41;0.00;0.00;0.62;0.00;0.00;0.62;4.90;2.60;;;21.70;29.50;;;;;;2265002;61;20394;-60
2023/11/16 08:05:38;0.00;0.00;0.62;0.00;0.00;0.62;3.57;2.70;;;21.70;29.50;;;;;;2264647;61;20411;-61
2023/11/16 08:08:22;0.00;0.00;0.62;0.00;0.00;0.62;3.67;2.73;;;21.70;29.50;;;;;;2265926;61;20867;-57
2023/11/16 08:11:08;0.00;0.00;0.62;0.00;0.00;0.62;3.90;2.77;;;21.70;29.50;;;;;;2265417;61;20396;-59
2023/11/16 08:13:54;0.00;0.00;0.62;0.00;0.00;0.62;3.90;3.03;;;21.70;29.50;;;;;;2265489;61;20356;-59
2023/11/16 08:16:39;0.00;0.00;0.62;0.00;0.00;0.62;4.50;2.80;;;21.70;29.50;;;;;;2265929;61;20403;-58
2023/11/16 08:19:25;0.00;0.00;0.62;0.00;0.00;0.62;4.30;3.20;;;21.70;29.50;;;;;;2265599;61;20407;-61
2023/11/16 08:22:11;0.00;0.00;0.62;0.00;0.00;0.62;5.63;4.17;;;21.70;29.50;;;;;;2265579;61;20378;-60
2023/11/16 08:24:56;0.00;0.00;0.62;0.00;0.00;0.62;5.20;3.40;;;21.70;29.60;;;;;;2265498;61;20402;-57
2023/11/16 08:27:41;0.00;0.00;0.62;0.00;0.00;0.62;5.00;3.37;;;21.70;29.60;;;;;;2265486;61;20845;-60
2023/11/16 08:30:27;0.00;0.00;0.62;0.00;0.00;0.62;3.87;3.00;;;21.70;29.60;;;;;;2266626;61;20378;-60
2023/11/16 08:33:14;0.00;0.00;0.62;0.00;0.00;0.62;4.53;3.23;;;21.70;29.60;;;;;;2266081;61;20499;-59
2023/11/16 08:36:03;0.00;0.00;0.62;0.00;0.00;0.62;6.90;3.47;;;21.70;29.60;;;;;;2266504;61;20364;-60
2023/11/16 08:38:48;0.00;0.00;0.62;0.00;0.00;0.62;4.40;3.00;;;21.70;29.60;;;;;;2266666;61;20456;-60
2023/11/16 08:41:33;0.00;0.00;0.62;0.00;0.00;0.62;4.07;3.13;;;21.70;29.70;;;;;;2266133;61;20367;-56
2023/11/16 08:44:18;0.00;0.00;0.62;0.00;0.00;0.62;4.90;3.80;;;21.70;29.60;;;;;;2266350;61;20974;-59
2023/11/16 08:47:14;0.00;0.00;0.62;0.00;0.00;0.62;4.70;3.60;;;21.80;29.70;;;;;;2265432;61;20392;-61
2023/11/16 08:49:58;0.00;0.00;0.62;0.00;0.00;0.62;5.60;3.43;;;21.80;29.80;;;;;;2266333;61;20938;-58
2023/11/16 08:52:47;0.00;0.00;0.62;0.00;0.00;0.62;5.00;3.20;;;21.80;29.80;;;;;;2265823;61;20399;-61
2023/11/16 08:55:33;0.00;0.00;0.62;0.00;0.00;0.62;4.20;3.20;;;21.80;29.80;;;;;;2265961;61;20774;-61
2023/11/16 08:58:18;0.00;0.00;0.62;0.00;0.00;0.62;4.43;3.37;;;21.80;29.80;;;;;;2266162;61;20759;-60
2023/11/16 09:01:05;0.00;0.00;0.62;0.00;0.00;0.62;4.83;3.43;;;21.80;29.80;;;;;;2266610;61;20395;-57
2023/11/16 09:03:52;0.00;0.00;0.62;0.00;0.00;0.62;4.60;3.43;;;21.80;29.80;;;;;;2265987;61;20878;-60
2023/11/16 09:06:37;0.00;0.00;0.62;0.00;0.00;0.62;4.00;3.40;;;21.80;29.80;;;;;;2266452;61;20799;-57
2023/11/16 09:09:35;0.00;0.00;0.62;0.00;0.00;0.62;4.80;3.90;;;21.80;29.80;;;;;;2266359;61;20384;-68
2023/11/16 09:12:20;0.00;0.00;0.62;0.00;0.00;0.62;3.97;3.17;;;21.80;29.80;;;;;;2266334;61;20440;-58
2023/11/16 09:15:07;0.00;0.00;0.62;0.00;0.00;0.62;4.90;3.63;;;21.90;29.90;;;;;;2266291;61;20917;-58
2023/11/16 09:17:52;0.00;0.00;0.62;0.00;0.00;0.62;4.27;3.57;;;21.90;29.90;;;;;;2265918;61;20889;-60
2023/11/16 09:20:40;0.00;0.00;0.62;0.00;0.00;0.62;4.23;3.30;;;21.90;29.90;;;;;;2266378;61;20380;-59
2023/11/16 09:23:25;0.00;0.00;0.62;0.00;0.00;0.62;4.13;3.00;;;21.90;29.90;;;;;;2265473;61;20816;-60
2023/11/16 09:26:10;0.00;0.00;0.62;0.00;0.00;0.62;5.63;3.70;;;21.90;29.90;;;;;;2266380;61;20414;-59
2023/11/16 09:28:55;0.00;0.00;0.62;0.00;0.00;0.62;3.93;3.10;;;21.90;29.90;;;;;;2266039;61;20383;-59
2023/11/16 09:31:41;0.00;0.00;0.62;0.00;0.00;0.62;3.17;2.80;;;21.90;29.90;;;;;;2265823;61;20376;-59
2023/11/16 09:34:27;0.00;0.00;0.62;0.00;0.00;0.62;4.80;3.70;;;21.90;29.90;;;;;;2266579;61;20989;-60
2023/11/16 09:37:14;0.00;0.00;0.62;0.00;0.00;0.62;4.73;3.97;;;22.00;30.00;;;;;;2262850;61;20364;-59
2023/11/16 09:40:04;0.00;0.00;0.62;0.00;0.00;0.62;3.83;3.10;;;22.00;30.00;;;;;;2265836;61;20392;-55
2023/11/16 09:42:49;0.00;0.00;0.62;0.00;0.00;0.62;4.00;3.30;;;22.00;30.00;;;;;;2266328;61;20410;-58
2023/11/16 09:45:38;0.00;0.00;0.62;0.00;0.00;0.62;4.00;3.20;;;22.00;30.50;;;;;;2266279;61;20403;-60
2023/11/16 09:48:22;0.00;0.00;0.62;0.00;0.00;0.62;3.40;2.70;;;22.00;30.00;;;;;;2266063;61;20387;-54
2023/11/16 09:51:08;0.00;0.00;0.62;0.00;0.00;0.62;4.20;3.27;;;22.00;30.00;;;;;;2266022;61;20402;-56
2023/11/16 09:53:58;0.00;0.00;0.62;0.00;0.00;0.62;4.90;3.40;;;22.00;30.00;;;;;;2265903;61;20375;-55
2023/11/16 09:56:44;0.00;0.00;0.62;0.00;0.00;0.62;4.20;3.10;;;22.00;30.00;;;;;;2266190;61;20382;-56
2023/11/16 09:59:37;0.00;0.00;0.62;0.00;0.00;0.62;3.80;2.77;;;22.10;30.00;;;;;;2266286;61;20416;-56
2023/11/16 10:02:25;0.00;0.00;0.62;0.00;0.00;0.62;4.60;3.27;;;22.10;30.00;;;;;;2262169;61;20996;-59
2023/11/16 10:05:24;0.00;0.00;0.62;0.00;0.00;0.62;4.30;3.20;;;22.10;30.00;;;;;;2266340;61;20426;-55
2023/11/16 10:08:08;0.00;0.00;0.62;0.00;0.00;0.62;4.33;3.63;;;22.10;30.00;;;;;;2265794;61;20384;-54
2023/11/16 10:10:56;0.00;0.00;0.62;0.00;0.00;0.62;3.33;2.80;;;22.10;30.60;;;;;;2266312;61;20392;-58
2023/11/16 10:13:53;0.00;0.00;0.62;0.00;0.00;0.62;4.63;3.57;;;22.10;30.00;;;;;;2265613;61;20372;-59
2023/11/16 10:16:38;0.00;0.00;0.62;0.00;0.00;0.62;4.23;3.37;;;22.10;30.00;;;;;;2265886;61;20458;-58
2023/11/16 10:19:23;0.00;0.00;0.62;0.00;0.00;0.62;4.30;3.30;;;22.20;30.00;;;;;;2265677;61;20387;-58
2023/11/16 10:22:08;0.00;0.00;0.62;0.00;0.00;0.62;3.83;3.07;;;22.20;30.00;;;;;;2265800;61;20387;-59
2023/11/16 10:24:55;0.00;0.00;0.62;0.00;0.00;0.62;3.53;2.63;;;22.20;30.00;;;;;;2265936;61;20383;-57
2023/11/16 10:27:42;0.00;0.00;0.62;0.00;0.00;0.62;2.90;2.30;;;22.20;30.00;;;;;;2266036;61;20404;-58
2023/11/16 10:30:28;0.00;0.00;0.62;0.00;0.00;0.62;5.83;3.20;;;22.20;30.00;;;;;;2266003;61;20983;-55
2023/11/16 10:33:16;0.00;0.00;0.62;0.00;0.00;0.62;3.30;2.47;;;22.20;30.00;;;;;;2265557;61;20367;-58
2023/11/16 10:36:01;0.00;0.00;0.62;0.00;0.00;0.62;3.50;2.77;;;22.20;30.00;;;;;;2266237;61;20399;-59
2023/11/16 10:38:46;0.00;0.00;0.62;0.00;0.00;0.62;3.60;2.80;;;22.20;30.00;;;;;;2265508;61;20448;-60
2023/11/16 10:41:32;0.00;0.00;0.62;0.00;0.00;0.62;3.93;3.10;;;22.30;30.00;;;;;;2265856;61;20447;-61
2023/11/16 10:44:18;0.00;0.00;0.62;0.00;0.00;0.62;4.23;3.37;;;22.30;30.00;;;;;;2266326;61;20364;-54
2023/11/16 10:47:05;0.00;0.00;0.62;0.00;0.00;0.62;4.17;3.20;;;22.30;30.00;;;;;;2265876;61;20399;-59
2023/11/16 10:49:51;0.00;0.00;0.62;0.00;0.00;0.62;3.80;3.10;;;22.30;30.00;;;;;;2266065;61;20396;-55
2023/11/16 10:52:39;0.00;0.00;0.62;0.00;0.00;0.62;4.40;3.23;;;22.30;30.00;;;;;;2265585;61;20442;-58
2023/11/16 10:55:26;0.00;0.00;0.62;0.00;0.00;0.62;3.70;3.13;;;22.40;30.00;;;;;;2266296;61;20415;-58